Time;durP1;ratioP1;P1;durP2;ratioP2;P2;SDS_P1;SDS_P2;PMS_P1;PMS_P2;Temp;Humidity;BMP_temperature;BMP_pressure;BME280_temperature;BME280_humidity;BME280_pressure;Samples;Min_cycle;Max_cycle;Signal;HPM_P1;HPM_P2
2022/03/27 00:02:10;110684.00;0.37;192.01;0.00;0.00;0.62;;;;;14.90;1.00;;;;;;2251699;61;1147;-85
2022/03/27 00:04:37;135149.00;0.45;234.21;0.00;0.00;0.62;;;;;14.60;1.00;;;;;;2251841;61;1916;-86
2022/03/27 00:07:04;51882.00;0.17;90.44;0.00;0.00;0.62;;;;;14.80;1.00;;;;;;2251630;61;1360;-85
2022/03/27 00:09:31;562426.00;1.87;969.38;15888.00;0.05;28.15;;;;;14.70;1.00;;;;;;2252132;61;1136;-87
2022/03/27 00:11:58;240057.00;0.80;414.85;0.00;0.00;0.62;;;;;14.40;1.00;;;;;;2251871;61;1076;-84
2022/03/27 00:14:27;63194.00;0.21;110.00;0.00;0.00;0.62;;;;;14.10;1.00;;;;;;2251801;61;1179;-84
2022/03/27 00:16:53;416065.00;1.39;717.42;19343.00;0.06;34.13;;;;;13.70;1.00;;;;;;2251732;61;1400;-84
2022/03/27 00:19:20;27352.00;0.09;48.00;0.00;0.00;0.62;;;;;13.70;1.00;;;;;;2251557;61;1172;-85
2022/03/27 00:21:48;177238.00;0.59;306.73;0.00;0.00;0.62;;;;;13.90;1.00;;;;;;2251678;61;1151;-85
2022/03/27 00:24:15;21422.00;0.07;37.73;0.00;0.00;0.62;;;;;13.50;1.00;;;;;;2251742;61;2240;-86
2022/03/27 00:26:41;189814.00;0.63;328.39;21748.00;0.07;38.30;;;;;13.20;1.00;;;;;;2251617;61;1972;-86
2022/03/27 00:29:09;18248.00;0.06;32.24;0.00;0.00;0.62;;;;;13.50;1.00;;;;;;2251689;61;1106;-86
2022/03/27 00:31:38;150294.00;0.50;260.31;0.00;0.00;0.62;;;;;14.00;1.00;;;;;;2251808;61;1291;-86
2022/03/27 00:34:06;286357.00;0.95;494.47;0.00;0.00;0.62;;;;;14.00;1.00;;;;;;2251786;61;2143;-86
2022/03/27 00:36:33;89187.00;0.30;154.90;0.00;0.00;0.62;;;;;13.50;1.00;;;;;;2251730;61;1384;-85
2022/03/27 00:39:00;547144.00;1.82;943.04;94307.00;0.31;163.74;;;;;13.20;1.00;;;;;;2251621;61;1041;-86
2022/03/27 00:41:27;416718.00;1.39;718.55;65943.00;0.22;114.75;;;;;13.30;1.00;;;;;;2251601;61;1631;-84
2022/03/27 00:43:54;333514.00;1.11;575.53;34053.00;0.11;59.60;;;;;13.00;1.00;;;;;;2251735;61;1127;-84
2022/03/27 00:46:21;495172.00;1.65;853.51;21141.00;0.07;37.25;;;;;12.50;1.00;;;;;;2251652;61;1918;-85
2022/03/27 00:48:49;113571.00;0.38;196.99;16684.00;0.06;29.53;;;;;13.10;1.00;;;;;;2251817;61;2324;-85
2022/03/27 00:51:16;568519.00;1.90;979.89;92728.00;0.31;161.02;;;;;13.00;1.00;;;;;;2251817;61;1198;-85
2022/03/27 00:53:43;109006.00;0.36;189.11;0.00;0.00;0.62;;;;;13.00;1.00;;;;;;2251668;61;1073;-85
2022/03/27 00:56:10;546775.00;1.82;942.40;142244.00;0.47;246.44;;;;;12.70;1.00;;;;;;2251552;61;1270;-83
2022/03/27 00:58:37;85597.00;0.29;148.70;0.00;0.00;0.62;;;;;12.40;1.00;;;;;;2251949;61;1079;-86
2022/03/27 01:01:15;158434.00;0.53;274.34;0.00;0.00;0.62;;;;;13.20;1.00;;;;;;2251833;61;1075;-85
2022/03/27 01:03:43;240786.00;0.80;416.10;0.00;0.00;0.62;;;;;13.80;1.00;;;;;;2251785;61;1063;-85
2022/03/27 01:06:28;193020.00;0.64;333.91;0.00;0.00;0.62;;;;;14.00;1.00;;;;;;2251454;61;2003;-84
2022/03/27 01:11:40;327236.00;1.09;564.74;88638.00;0.30;153.96;;;;;13.80;1.00;;;;;;2251759;61;681;-86
2022/03/27 01:14:07;368634.00;1.23;635.89;76071.00;0.25;132.25;;;;;14.20;1.00;;;;;;2251883;61;1032;-85
2022/03/27 01:16:39;667338.00;2.22;1150.64;69119.00;0.23;120.24;;;;;14.30;1.00;;;;;;2251994;61;1270;-85
2022/03/27 01:19:07;512267.00;1.71;882.95;85267.00;0.28;148.13;;;;;14.30;1.00;;;;;;2251594;61;1652;-84
2022/03/27 01:21:38;344523.00;1.15;594.45;64941.00;0.22;113.02;;;;;14.20;1.00;;;;;;2252065;61;1106;-87
2022/03/27 01:24:07;353772.00;1.18;610.34;88453.00;0.29;153.64;;;;;14.00;1.00;;;;;;2251470;61;1018;-85
2022/03/27 01:26:34;563217.00;1.88;970.75;154917.00;0.52;268.28;;;;;14.10;1.00;;;;;;2251407;61;1972;-85
2022/03/27 01:29:01;308011.00;1.03;531.69;81704.00;0.27;141.98;;;;;14.20;1.00;;;;;;2251719;61;1298;-85
2022/03/27 01:31:28;283033.00;0.94;488.75;103861.00;0.35;180.24;;;;;14.40;1.00;;;;;;2251566;61;1559;-86
2022/03/27 01:33:55;433544.00;1.45;747.48;78552.00;0.26;136.54;;;;;14.50;1.00;;;;;;2251692;61;1745;-84
2022/03/27 01:36:24;310916.00;1.04;536.68;93643.00;0.31;162.60;;;;;14.40;1.00;;;;;;2251790;61;1402;-86
2022/03/27 01:38:55;614393.00;2.05;1059.08;101396.00;0.34;175.98;;;;;14.20;1.00;;;;;;2251583;61;1147;-86
2022/03/27 01:41:22;608746.00;2.03;1049.32;143342.00;0.48;248.33;;;;;14.20;1.00;;;;;;2251606;61;1079;-86
2022/03/27 01:43:50;331951.00;1.11;572.84;93612.00;0.31;162.54;;;;;14.00;1.00;;;;;;2251498;61;1254;-86
2022/03/27 01:46:17;395082.00;1.32;681.35;92148.00;0.31;160.02;;;;;13.70;1.00;;;;;;2251782;61;1924;-88
2022/03/27 01:48:44;394522.00;1.32;680.39;94715.00;0.32;164.45;;;;;13.40;1.00;;;;;;2251650;61;1043;-85
2022/03/27 01:51:11;290592.00;0.97;501.75;94792.00;0.32;164.58;;;;;12.90;1.00;;;;;;2251648;61;1133;-87
2022/03/27 01:53:39;298377.00;0.99;515.13;101715.00;0.34;176.53;;;;;12.80;1.00;;;;;;2251508;61;1205;-86
2022/03/27 01:56:08;343756.00;1.15;593.13;70738.00;0.24;123.04;;;;;13.10;1.00;;;;;;2251634;61;1762;-85
2022/03/27 01:58:38;383083.00;1.28;660.72;87498.00;0.29;151.99;;;;;13.30;1.00;;;;;;2251611;61;1137;-87
2022/03/27 02:01:06;373193.00;1.24;643.73;86988.00;0.29;151.11;;;;;13.00;1.00;;;;;;2251582;61;1472;-86
2022/03/27 02:03:33;372878.00;1.24;643.18;57930.00;0.19;100.90;;;;;13.10;1.00;;;;;;2251513;61;1120;-86
2022/03/27 02:06:00;295911.00;0.99;510.89;90179.00;0.30;156.62;;;;;12.90;1.00;;;;;;2251667;61;1924;-86
2022/03/27 02:08:27;524773.00;1.75;904.49;85910.00;0.29;149.24;;;;;12.90;1.00;;;;;;2251709;61;1128;-87
2022/03/27 02:10:54;540206.00;1.80;931.08;102293.00;0.34;177.53;;;;;12.60;1.00;;;;;;2251889;61;1040;-89
2022/03/27 02:13:22;337594.00;1.13;582.54;105829.00;0.35;183.63;;;;;12.60;1.00;;;;;;2251764;61;1168;-88
2022/03/27 02:15:50;429912.00;1.43;741.23;69244.00;0.23;120.45;;;;;13.00;1.00;;;;;;2251835;61;1390;-88
2022/03/27 02:18:17;552476.00;1.84;952.23;96157.00;0.32;166.94;;;;;13.30;1.00;;;;;;2251485;61;1304;-86
2022/03/27 02:20:45;246429.00;0.82;425.81;98605.00;0.33;171.16;;;;;12.90;1.00;;;;;;2251621;61;1006;-86
2022/03/27 02:23:13;394239.00;1.31;679.90;95088.00;0.32;165.09;;;;;13.00;1.00;;;;;;2251440;61;1266;-85
2022/03/27 02:25:40;698370.00;2.33;1204.41;209383.00;0.70;362.07;;;;;12.80;1.00;;;;;;2251590;61;2001;-86
2022/03/27 02:28:08;456042.00;1.52;786.18;86827.00;0.29;150.83;;;;;13.10;1.00;;;;;;2251746;61;1113;-86
2022/03/27 02:30:36;473059.00;1.58;815.45;65780.00;0.22;114.47;;;;;12.90;1.00;;;;;;2251739;61;1262;-86
2022/03/27 02:33:03;600472.00;2.00;1035.03;149739.00;0.50;259.36;;;;;13.10;1.00;;;;;;2251510;61;1138;-87
2022/03/27 02:35:31;499377.00;1.66;860.75;120806.00;0.40;209.47;;;;;12.70;1.00;;;;;;2251575;61;1334;-85
2022/03/27 02:37:58;704528.00;2.35;1215.09;95850.00;0.32;166.41;;;;;12.90;1.00;;;;;;2251577;61;1089;-85
2022/03/27 02:40:25;625113.00;2.08;1077.60;112418.00;0.37;195.00;;;;;12.40;1.00;;;;;;2251510;61;2164;-85
2022/03/27 02:42:52;460733.00;1.54;794.25;73961.00;0.25;128.60;;;;;12.70;1.00;;;;;;2251334;61;1098;-85
2022/03/27 02:45:19;324674.00;1.08;560.33;90036.00;0.30;156.37;;;;;12.80;1.00;;;;;;2251152;61;1994;-86
2022/03/27 02:47:47;412946.00;1.38;712.06;93844.00;0.31;162.94;;;;;12.50;1.00;;;;;;2251275;61;1347;-85
2022/03/27 02:50:14;467866.00;1.56;806.52;99388.00;0.33;172.52;;;;;12.30;1.00;;;;;;2251371;61;1153;-84
2022/03/27 02:52:41;442416.00;1.47;762.74;80203.00;0.27;139.39;;;;;12.10;1.00;;;;;;2251400;61;1250;-83
2022/03/27 02:55:08;244858.00;0.82;423.11;84296.00;0.28;146.46;;;;;12.40;1.00;;;;;;2251269;61;1186;-84
2022/03/27 02:57:36;585807.00;1.95;1009.72;96994.00;0.32;168.38;;;;;12.40;1.00;;;;;;2251597;61;1465;-87
2022/03/27 03:00:04;493669.00;1.65;850.92;93810.00;0.31;162.89;;;;;12.60;1.00;;;;;;2251728;61;992;-88
2022/03/27 03:02:31;663080.00;2.21;1143.27;90660.00;0.30;157.45;;;;;12.30;1.00;;;;;;2251762;61;1134;-87
2022/03/27 03:05:00;886916.00;2.96;1533.15;229024.00;0.76;395.87;;;;;12.20;1.00;;;;;;2251741;61;1112;-89
2022/03/27 03:07:27;314844.00;1.05;543.44;91215.00;0.30;158.41;;;;;12.40;1.00;;;;;;2251539;61;2043;-86
2022/03/27 03:09:54;343359.00;1.14;592.45;106115.00;0.35;184.13;;;;;12.50;1.00;;;;;;2251656;61;1307;-85
2022/03/27 03:12:22;612571.00;2.04;1055.93;99937.00;0.33;173.46;;;;;12.50;1.00;;;;;;2251454;61;1179;-84
2022/03/27 03:14:52;274832.00;0.92;474.65;80421.00;0.27;139.76;;;;;12.50;1.00;;;;;;2251467;61;1152;-85
2022/03/27 03:17:20;405336.00;1.35;698.98;98453.00;0.33;170.90;;;;;13.00;1.00;;;;;;2251714;61;1360;-86
2022/03/27 03:19:47;558007.00;1.86;961.76;104170.00;0.35;180.77;;;;;13.10;1.00;;;;;;2251279;61;1015;-85
2022/03/27 03:22:16;281884.00;0.94;486.78;76560.00;0.26;133.09;;;;;13.30;1.00;;;;;;2251381;61;1151;-85
2022/03/27 03:24:43;469514.00;1.57;809.35;73210.00;0.24;127.31;;;;;13.50;1.00;;;;;;2251349;61;1017;-85
2022/03/27 03:27:10;348055.00;1.16;600.52;82586.00;0.28;143.50;;;;;13.30;1.00;;;;;;2251282;61;2001;-85
2022/03/27 03:29:37;303558.00;1.01;524.04;87173.00;0.29;151.43;;;;;12.40;1.00;;;;;;2252029;61;1110;-86
2022/03/27 03:32:05;354416.00;1.18;611.45;82123.00;0.27;142.70;;;;;12.30;1.00;;;;;;2251971;61;1495;-85
2022/03/27 03:34:32;283224.00;0.94;489.08;99992.00;0.33;173.56;;;;;11.90;1.00;;;;;;2251928;61;1184;-86
2022/03/27 03:36:59;761639.00;2.54;1314.30;113932.00;0.38;197.61;;;;;11.60;1.00;;;;;;2251966;61;1364;-85
2022/03/27 03:39:28;332257.00;1.11;573.37;82586.00;0.28;143.50;;;;;11.50;1.00;;;;;;2251810;61;2231;-85
2022/03/27 03:41:55;685850.00;2.29;1182.71;178490.00;0.59;308.89;;;;;11.50;1.00;;;;;;2251104;61;1558;-83
2022/03/27 03:44:22;474424.00;1.58;817.80;91284.00;0.30;158.52;;;;;11.50;1.00;;;;;;2251893;61;1123;-86
2022/03/27 03:46:49;413086.00;1.38;712.30;102828.00;0.34;178.45;;;;;11.40;1.00;;;;;;2251999;61;2034;-86
2022/03/27 03:49:16;409114.00;1.36;705.47;77278.00;0.26;134.34;;;;;11.90;1.00;;;;;;2252070;61;1022;-85
2022/03/27 03:51:43;266292.00;0.89;459.97;88676.00;0.30;154.02;;;;;12.20;1.00;;;;;;2251937;61;1153;-85
2022/03/27 03:54:09;320836.00;1.07;553.74;105016.00;0.35;182.23;;;;;12.10;1.00;;;;;;2251778;61;1075;-85
2022/03/27 03:56:39;185006.00;0.62;320.11;66738.00;0.22;116.12;;;;;12.10;1.00;;;;;;2251905;61;1382;-86
2022/03/27 03:59:06;231161.00;0.77;399.55;90157.00;0.30;156.58;;;;;12.50;1.00;;;;;;2252004;61;1135;-87
2022/03/27 04:01:33;658642.00;2.20;1135.59;219254.00;0.73;379.06;;;;;12.50;1.00;;;;;;2251960;61;1103;-85
2022/03/27 04:04:00;438956.00;1.46;756.79;88397.00;0.29;153.54;;;;;12.40;1.00;;;;;;2252001;61;1499;-87
2022/03/27 04:06:27;426702.00;1.42;735.71;92076.00;0.31;159.89;;;;;12.10;1.00;;;;;;2251947;61;2015;-86
2022/03/27 04:08:54;460162.00;1.53;793.26;86645.00;0.29;150.51;;;;;12.10;1.00;;;;;;2251876;61;1119;-85
2022/03/27 04:11:21;520537.00;1.74;897.19;88355.00;0.29;153.47;;;;;12.20;1.00;;;;;;2251917;61;1179;-84
2022/03/27 04:13:49;301106.00;1.00;519.82;86128.00;0.29;149.62;;;;;12.00;1.00;;;;;;2251774;61;1173;-86
2022/03/27 04:16:16;258169.00;0.86;446.00;91560.00;0.31;159.00;;;;;12.20;1.00;;;;;;2251698;61;1298;-85
2022/03/27 04:18:44;282356.00;0.94;487.59;90649.00;0.30;157.43;;;;;12.20;1.00;;;;;;2251975;61;1155;-85
2022/03/27 04:21:10;407493.00;1.36;702.69;91435.00;0.30;158.79;;;;;11.70;1.00;;;;;;2251800;61;1057;-85
2022/03/27 04:23:37;373968.00;1.25;645.06;90841.00;0.30;157.76;;;;;11.20;1.00;;;;;;2251762;61;1133;-83
2022/03/27 04:26:05;502270.00;1.67;865.73;81917.00;0.27;142.35;;;;;10.20;1.00;;;;;;2251766;61;1993;-85
2022/03/27 04:28:32;501691.00;1.67;864.74;94619.00;0.32;164.28;;;;;9.80;1.00;;;;;;2252118;61;1876;-88
2022/03/27 04:31:00;306999.00;1.02;529.95;86979.00;0.29;151.09;;;;;9.60;1.00;;;;;;2252056;61;1723;-87
2022/03/27 04:33:27;450056.00;1.50;775.88;82235.00;0.27;142.90;;;;;10.10;1.00;;;;;;2252083;61;1043;-87
2022/03/27 04:35:54;380956.00;1.27;657.07;149131.00;0.50;258.31;;;;;10.70;1.00;;;;;;2251749;61;1414;-86
2022/03/27 04:38:21;238506.00;0.80;412.18;95822.00;0.32;166.36;;;;;10.90;1.00;;;;;;2251772;61;1195;-85
2022/03/27 04:40:50;633142.00;2.11;1091.48;153606.00;0.51;266.02;;;;;11.70;1.00;;;;;;2251837;61;1088;-86
2022/03/27 04:43:17;427069.00;1.42;736.35;90176.00;0.30;156.61;;;;;12.00;1.00;;;;;;2251785;61;1050;-85
2022/03/27 04:45:43;117251776.00;390.84;65295820.00;96291.00;0.32;167.17;;;;;12.10;1.00;;;;;;2251659;61;1278;-86
2022/03/27 04:48:12;432883.00;1.44;746.34;148747.00;0.50;257.65;;;;;12.20;1.00;;;;;;2251744;61;1098;-86
2022/03/27 04:50:39;642254.00;2.14;1107.24;140117.00;0.47;242.77;;;;;12.60;1.00;;;;;;2251458;61;1037;-85
2022/03/27 04:53:06;126159.00;0.42;218.71;76300.00;0.25;132.65;;;;;12.70;1.00;;;;;;2251523;61;1148;-86
2022/03/27 04:55:33;117373016.00;391.24;65498760.00;0.00;0.00;0.62;;;;;12.90;1.00;;;;;;2251734;61;1341;-86
2022/03/27 04:58:00;274258.00;0.91;473.67;0.00;0.00;0.62;;;;;12.50;1.00;;;;;;2251647;61;1098;-85
2022/03/27 05:00:28;219192.00;0.73;378.95;0.00;0.00;0.62;;;;;11.90;1.00;;;;;;2251706;61;1160;-86
2022/03/27 05:02:56;87477.00;0.29;151.95;0.00;0.00;0.62;;;;;11.40;1.00;;;;;;2251743;61;1103;-85
2022/03/27 05:05:24;117666760.00;392.22;65992196.00;117436032.00;391.45;65604404.00;;;;;11.00;1.00;;;;;;2251640;61;1089;-85
2022/03/27 05:07:53;227595.00;0.76;393.41;94858.00;0.32;164.70;;;;;10.80;1.00;;;;;;2251633;61;1967;-84
2022/03/27 05:10:20;566039.00;1.89;975.61;193367.00;0.64;334.51;;;;;10.80;1.00;;;;;;2251508;61;2372;-85
2022/03/27 05:12:48;603335.00;2.01;1039.98;220524.00;0.74;381.25;;;;;10.70;1.00;;;;;;2251602;61;1145;-84
2022/03/27 05:15:15;412913.00;1.38;712.01;72517.00;0.24;126.11;;;;;10.70;1.00;;;;;;2251546;61;1122;-84
2022/03/27 05:17:49;425579.00;1.42;733.78;93380.00;0.31;162.14;;;;;10.90;1.00;;;;;;2251591;61;1380;-85
2022/03/27 05:20:17;444568.00;1.48;766.44;123378.00;0.41;213.91;;;;;11.20;1.00;;;;;;2251616;61;1290;-84
2022/03/27 05:22:45;586471.00;1.95;1010.87;132603.00;0.44;229.82;;;;;11.40;1.00;;;;;;2251425;61;1073;-84
2022/03/27 05:25:13;431062.00;1.44;743.21;91814.00;0.31;159.44;;;;;11.40;1.00;;;;;;2251497;61;1112;-84
2022/03/27 05:27:44;301767.00;1.01;520.96;94641.00;0.32;164.32;;;;;11.20;1.00;;;;;;2251280;61;2040;-84
2022/03/27 05:30:12;453719.00;1.51;782.18;82258.00;0.27;142.94;;;;;10.80;1.00;;;;;;2251323;61;1148;-84
2022/03/27 05:32:39;598159.00;1.99;1031.04;155781.00;0.52;269.77;;;;;10.70;1.00;;;;;;2251141;61;1057;-83
2022/03/27 05:35:07;351961.00;1.17;607.23;89059.00;0.30;154.68;;;;;10.80;1.00;;;;;;2251537;61;1128;-84
2022/03/27 05:37:36;463765.00;1.55;799.46;93911.00;0.31;163.06;;;;;10.70;1.00;;;;;;2251525;61;1245;-87
2022/03/27 05:40:07;642851.00;2.14;1108.27;89951.00;0.30;156.22;;;;;11.10;1.00;;;;;;2251510;61;1644;-85
2022/03/27 05:42:35;578260.00;1.93;996.70;99556.00;0.33;172.81;;;;;11.00;1.00;;;;;;2251325;61;1167;-84
2022/03/27 05:45:02;495130.00;1.65;853.44;91046.00;0.30;158.11;;;;;11.10;1.00;;;;;;2251404;61;1213;-85
2022/03/27 05:47:29;543326.00;1.81;936.46;63115.00;0.21;109.86;;;;;11.60;1.00;;;;;;2251281;61;2020;-85
2022/03/27 05:49:56;661769.00;2.21;1141.00;170654.00;0.57;295.39;;;;;12.10;1.00;;;;;;2251090;61;1628;-85
2022/03/27 05:52:23;709456.00;2.36;1223.64;82724.00;0.28;143.74;;;;;13.00;1.00;;;;;;2251226;61;1184;-85
2022/03/27 05:54:51;576973.00;1.92;994.48;95616.00;0.32;166.00;;;;;13.40;1.00;;;;;;2251397;61;1050;-85
2022/03/27 05:57:20;590434.00;1.97;1017.71;99338.00;0.33;172.43;;;;;13.90;1.00;;;;;;2251175;61;1284;-84
2022/03/27 05:59:47;564676.00;1.88;973.26;90221.00;0.30;156.69;;;;;14.50;1.00;;;;;;2251104;61;1102;-84
2022/03/27 06:02:15;397707.00;1.33;685.86;88968.00;0.30;154.53;;;;;14.50;1.00;;;;;;2251009;61;1153;-84
2022/03/27 06:04:42;511855.00;1.71;882.24;92046.00;0.31;159.84;;;;;14.90;1.00;;;;;;2251376;61;1091;-84
2022/03/27 06:07:10;430322.00;1.43;741.94;85750.00;0.29;148.97;;;;;15.00;1.00;;;;;;2251335;61;2009;-84
2022/03/27 06:09:37;587831.00;1.96;1013.21;145865.00;0.49;252.68;;;;;15.50;1.00;;;;;;2251423;61;1153;-85
2022/03/27 06:12:06;576244.00;1.92;993.22;69993.00;0.23;121.75;;;;;15.70;1.00;;;;;;2251463;61;1129;-84
2022/03/27 06:14:34;449182.00;1.50;774.38;85638.00;0.29;148.78;;;;;16.00;1.00;;;;;;2251550;61;1119;-84
2022/03/27 06:17:01;581341.00;1.94;1002.01;84067.00;0.28;146.06;;;;;16.30;1.00;;;;;;2251404;61;1388;-84
2022/03/27 06:19:30;645579.00;2.15;1112.99;126156.00;0.42;218.70;;;;;16.30;1.00;;;;;;2251466;61;1723;-85
2022/03/27 06:21:57;369132.00;1.23;636.74;96004.00;0.32;166.67;;;;;16.50;1.00;;;;;;2251459;61;1232;-83
2022/03/27 06:24:25;483849.00;1.61;834.02;88288.00;0.29;153.35;;;;;17.10;1.00;;;;;;2251124;61;1076;-85
2022/03/27 06:26:52;293716.00;0.98;507.12;85615.00;0.29;148.74;;;;;17.50;1.00;;;;;;2251310;61;2019;-84
2022/03/27 06:29:21;550036.00;1.83;948.02;92331.00;0.31;160.33;;;;;18.00;1.00;;;;;;2251205;61;1104;-85
2022/03/27 06:31:50;334625.00;1.12;577.44;91478.00;0.30;158.86;;;;;18.70;1.00;;;;;;2251552;61;1163;-85
2022/03/27 06:34:18;293003.00;0.98;505.89;76501.00;0.26;132.99;;;;;19.40;1.00;;;;;;2251552;61;1057;-85
2022/03/27 06:36:46;271765.00;0.91;469.38;90109.00;0.30;156.50;;;;;19.40;1.00;;;;;;2251218;61;1293;-85
2022/03/27 06:39:13;325959.00;1.09;562.54;91086.00;0.30;158.18;;;;;19.00;1.00;;;;;;2251356;61;1091;-83
2022/03/27 06:41:40;463210.00;1.54;798.51;99467.00;0.33;172.65;;;;;18.70;1.00;;;;;;2251521;61;1073;-83
2022/03/27 06:44:07;184606.00;0.62;319.42;36903.00;0.12;64.53;;;;;18.40;1.00;;;;;;2251544;61;2152;-86
2022/03/27 06:46:34;441195.00;1.47;760.64;36430.00;0.12;63.71;;;;;18.10;1.00;;;;;;2251710;61;2017;-87
2022/03/27 06:49:02;404633.00;1.35;697.77;21390.00;0.07;37.68;;;;;17.90;1.00;;;;;;2251632;61;1024;-87
2022/03/27 06:51:29;105679.00;0.35;183.37;0.00;0.00;0.62;;;;;18.00;1.00;;;;;;2251801;61;971;-87
2022/03/27 06:53:56;190286.00;0.63;329.20;31355.00;0.10;54.93;;;;;19.10;1.00;;;;;;2251393;61;1074;-84
2022/03/27 06:56:23;129971.00;0.43;225.28;0.00;0.00;0.62;;;;;19.40;1.00;;;;;;2251282;61;1261;-84
2022/03/27 06:58:51;30410.00;0.10;53.29;0.00;0.00;0.62;;;;;19.30;1.00;;;;;;2251424;61;1089;-84
2022/03/27 07:04:03;193169.00;0.64;334.16;48509.00;0.16;84.61;;;;;19.40;1.00;;;;;;2251961;61;640;-84
2022/03/27 07:06:30;266575.00;0.89;460.45;0.00;0.00;0.62;;;;;19.50;1.00;;;;;;2252111;61;2008;-87
2022/03/27 07:08:58;354818.00;1.18;612.14;30134.00;0.10;52.82;;;;;20.20;1.00;;;;;;2251948;61;1157;-84
2022/03/27 07:11:25;327152.00;1.09;564.59;0.00;0.00;0.62;;;;;19.00;1.00;;;;;;2252039;61;2033;-84
2022/03/27 07:13:51;176253.00;0.59;305.04;0.00;0.00;0.62;;;;;19.00;1.00;;;;;;2251964;61;1149;-85
2022/03/27 07:16:18;191785.00;0.64;331.78;0.00;0.00;0.62;;;;;19.00;1.00;;;;;;2251938;61;1278;-84
2022/03/27 07:18:49;490444.00;1.63;845.37;86496.00;0.29;150.26;;;;;18.70;1.00;;;;;;2251782;61;1053;-84
2022/03/27 07:21:18;35975.00;0.12;62.92;0.00;0.00;0.62;;;;;19.10;1.00;;;;;;2252136;61;1775;-85
2022/03/27 07:23:46;212441.00;0.71;367.34;0.00;0.00;0.62;;;;;19.70;1.00;;;;;;2251857;61;1124;-84
2022/03/27 07:26:13;115597.00;0.39;200.49;0.00;0.00;0.62;;;;;20.70;1.00;;;;;;2251847;61;1410;-85
2022/03/27 07:28:40;389041.00;1.30;670.97;52751.00;0.18;91.94;;;;;20.50;1.00;;;;;;2251665;61;1928;-85
2022/03/27 07:31:07;93610.00;0.31;162.54;0.00;0.00;0.62;;;;;20.60;1.00;;;;;;2251876;61;973;-85
2022/03/27 07:33:34;451428.00;1.50;778.24;9163.00;0.03;16.50;;;;;20.20;1.00;;;;;;2252303;61;1159;-87
2022/03/27 07:36:01;34590.00;0.12;60.53;0.00;0.00;0.62;;;;;20.00;1.00;;;;;;2251982;61;1390;-85
2022/03/27 07:38:30;137981.00;0.46;239.09;0.00;0.00;0.62;;;;;19.90;1.00;;;;;;2251841;61;1157;-85
2022/03/27 07:40:56;254903.00;0.85;440.38;84885.00;0.28;147.47;;;;;20.50;1.00;;;;;;2251615;61;1094;-84
2022/03/27 07:43:23;69888.00;0.23;121.57;0.00;0.00;0.62;;;;;19.80;1.00;;;;;;2251745;61;1057;-85
2022/03/27 07:45:50;254636.00;0.85;439.92;71798.00;0.24;124.87;;;;;19.30;1.00;;;;;;2251646;61;1265;-84
2022/03/27 07:48:17;205309.00;0.68;355.06;9479.00;0.03;17.05;;;;;19.50;1.00;;;;;;2251623;61;1920;-84
2022/03/27 07:50:46;60832.00;0.20;105.92;0.00;0.00;0.62;;;;;19.50;1.00;;;;;;2251639;61;1096;-85
2022/03/27 07:53:13;182662.00;0.61;316.07;23797.00;0.08;41.84;;;;;19.70;1.00;;;;;;2251579;61;1701;-84
2022/03/27 07:55:42;508163.00;1.69;875.88;88098.00;0.29;153.02;;;;;19.70;1.00;;;;;;2251681;61;1559;-84
2022/03/27 07:58:08;118381616.00;394.61;67203360.00;0.00;0.00;0.62;;;;;20.50;1.00;;;;;;2251740;61;2048;-86
2022/03/27 08:00:35;432031.00;1.44;744.88;120370.00;0.40;208.72;;;;;20.80;1.00;;;;;;2251832;61;1085;-84
2022/03/27 08:03:03;69333.00;0.23;120.61;0.00;0.00;0.62;;;;;20.30;1.00;;;;;;2251579;61;1184;-84
2022/03/27 08:05:30;387519.00;1.29;668.35;119291.00;0.40;206.86;;;;;20.60;1.00;;;;;;2251701;61;1362;-84
2022/03/27 08:07:58;272701.00;0.91;470.99;23683.00;0.08;41.65;;;;;20.10;1.00;;;;;;2251917;61;2006;-84
2022/03/27 08:10:24;1037028.00;3.46;1798.16;59802.00;0.20;104.13;;;;;19.60;1.00;;;;;;2251724;61;1054;-86
2022/03/27 08:12:53;1093482.00;3.64;1898.77;61918.00;0.21;107.79;;;;;19.60;1.00;;;;;;2251612;61;1067;-84
2022/03/27 08:15:21;944728.00;3.15;1634.82;30607.00;0.10;53.63;;;;;20.70;1.00;;;;;;2251613;61;1139;-85
2022/03/27 08:17:51;631439.00;2.10;1088.54;13104.00;0.04;23.33;;;;;20.90;1.00;;;;;;2251744;61;1223;-84
2022/03/27 08:20:18;547091.00;1.82;942.94;53091.00;0.18;92.53;;;;;20.90;1.00;;;;;;2252048;61;1066;-83
2022/03/27 08:22:44;1058729.00;3.53;1836.77;57116.00;0.19;99.49;;;;;20.40;1.00;;;;;;2251059;61;1200;-83
2022/03/27 08:26:55;546057.00;1.82;941.16;14304.00;0.05;25.41;;;;;20.10;1.00;;;;;;2250538;61;1110;-84
2022/03/27 08:27:59;252380.00;0.84;436.04;0.00;0.00;0.62;;;;;20.00;1.00;;;;;;2251417;61;1940;-84
2022/03/27 08:30:26;1423933.00;4.75;2500.79;243072.00;0.81;420.04;;;;;20.00;1.00;;;;;;2251872;61;1097;-83
2022/03/27 08:32:53;868768.00;2.90;1501.33;53597.00;0.18;93.41;;;;;20.90;1.00;;;;;;2251926;61;1045;-84
2022/03/27 08:35:20;777490.00;2.59;1341.89;32541.00;0.11;56.98;;;;;20.70;1.00;;;;;;2251745;61;1204;-84
2022/03/27 08:37:47;982129.00;3.27;1700.85;0.00;0.00;0.62;;;;;20.60;1.00;;;;;;2251570;61;1320;-84
2022/03/27 08:40:16;1418796.00;4.73;2491.23;185817.00;0.62;321.51;;;;;20.40;1.00;;;;;;2251399;61;1595;-85
2022/03/27 08:42:45;610114.00;2.03;1051.69;119812.00;0.40;207.76;;;;;20.90;1.00;;;;;;2251171;61;1273;-84
2022/03/27 08:45:13;119695544.00;398.99;69468064.00;121914.00;0.41;211.38;;;;;20.80;1.00;;;;;;2252094;61;1120;-87
2022/03/27 08:47:41;351280.00;1.17;606.06;77061.00;0.26;133.96;;;;;20.80;1.00;;;;;;2251355;61;1964;-83
2022/03/27 08:50:16;261930.00;0.87;452.47;73509.00;0.25;127.82;;;;;20.20;1.00;;;;;;2251633;61;1124;-84
2022/03/27 08:52:59;231650.00;0.77;400.39;83993.00;0.28;145.93;;;;;19.80;1.00;;;;;;2251456;61;1219;-84
2022/03/27 08:55:39;386471.00;1.29;666.55;86673.00;0.29;150.56;;;;;18.90;1.00;;;;;;2251481;61;2313;-85
2022/03/27 08:58:08;704161.00;2.35;1214.45;80364.00;0.27;139.67;;;;;18.20;1.00;;;;;;2251410;61;1434;-85
2022/03/27 09:00:36;333785.00;1.11;575.99;89505.00;0.30;155.45;;;;;17.70;1.00;;;;;;2251418;61;1095;-85
2022/03/27 09:03:05;25752.00;0.09;45.23;0.00;0.00;0.62;;;;;17.10;1.00;;;;;;2251313;61;2294;-85
2022/03/27 09:05:35;135888.00;0.45;235.48;0.00;0.00;0.62;;;;;17.00;1.00;;;;;;2252000;61;1388;-88
2022/03/27 09:08:05;333508.00;1.11;575.52;72189.00;0.24;125.54;;;;;16.60;1.00;;;;;;2251641;61;2007;-85
2022/03/27 09:10:32;50781.00;0.17;88.54;0.00;0.00;0.62;;;;;16.40;1.00;;;;;;2252085;61;1058;-88
2022/03/27 09:13:00;191935.00;0.64;332.04;0.00;0.00;0.62;;;;;15.50;1.00;;;;;;2251512;61;962;-85
2022/03/27 09:15:27;70361.00;0.23;122.38;0.00;0.00;0.62;;;;;15.30;1.00;;;;;;2250904;61;1375;-84
2022/03/27 09:18:05;474929.00;1.58;818.67;27627.00;0.09;48.48;;;;;14.90;1.00;;;;;;2251386;61;1121;-86
2022/03/27 09:20:48;452975.00;1.51;780.90;0.00;0.00;0.62;;;;;15.10;1.00;;;;;;2251476;61;1049;-85
2022/03/27 09:23:22;104753.00;0.35;181.78;0.00;0.00;0.62;;;;;15.60;1.00;;;;;;2251002;61;1144;-85
2022/03/27 09:25:55;436451.00;1.45;752.48;26813.00;0.09;47.07;;;;;15.90;1.00;;;;;;2250990;61;1367;-83
2022/03/27 09:28:25;227911.00;0.76;393.95;0.00;0.00;0.62;;;;;15.60;1.00;;;;;;2250782;61;2193;-85
2022/03/27 09:30:53;137072.00;0.46;237.52;0.00;0.00;0.62;;;;;15.50;1.00;;;;;;2250993;61;1163;-84
2022/03/27 09:33:46;71713.00;0.24;124.72;0.00;0.00;0.62;;;;;15.60;1.00;;;;;;2250673;61;1103;-84
2022/03/27 09:36:15;271744.00;0.91;469.34;5732.00;0.02;10.55;;;;;15.30;1.00;;;;;;2251011;61;1619;-86
2022/03/27 09:38:57;119784792.00;399.28;69623728.00;0.00;0.00;0.62;;;;;15.50;1.00;;;;;;2250941;61;1127;-84
2022/03/27 09:41:34;226571.00;0.76;391.65;11282.00;0.04;20.17;;;;;15.60;1.00;;;;;;2250758;61;1446;-85